Time;durP1;ratioP1;P1;durP2;ratioP2;P2;SDS_P1;SDS_P2;PMS_P1;PMS_P2;Temp;Humidity;BMP_temperature;BMP_pressure;BME280_temperature;BME280_humidity;BME280_pressure;Samples;Min_cycle;Max_cycle;Signal;HPM_P1;HPM_P2
2022/08/03 00:01:34;;;;;;;9.57;4.18;;;;;;;;;;5048543;28;20386;-52
2022/08/03 00:04:00;;;;;;;8.10;3.88;;;;;;;;;;5045640;28;20739;-52
2022/08/03 00:06:26;;;;;;;9.80;4.00;;;;;;;;;;5048632;28;20401;-52
2022/08/03 00:08:52;;;;;;;8.40;4.18;;;;;;;;;;5049045;28;20388;-52
2022/08/03 00:11:18;;;;;;;8.02;4.15;;;;;;;;;;5030743;28;20404;-52
2022/08/03 00:13:44;;;;;;;10.43;4.13;;;;;;;;;;5049629;28;20464;-52
2022/08/03 00:16:10;;;;;;;9.85;3.78;;;;;;;;;;5048470;28;20427;-52
2022/08/03 00:18:37;;;;;;;8.70;4.23;;;;;;;;;;5048855;28;20405;-52
2022/08/03 00:21:03;;;;;;;8.00;3.83;;;;;;;;;;5048206;28;20409;-51
2022/08/03 00:23:29;;;;;;;11.68;4.50;;;;;;;;;;5048855;28;20822;-51
2022/08/03 00:25:56;;;;;;;7.85;4.15;;;;;;;;;;5048111;28;20407;-52
2022/08/03 00:28:22;;;;;;;8.50;4.22;;;;;;;;;;5048137;28;20397;-51
2022/08/03 00:30:48;;;;;;;10.00;4.15;;;;;;;;;;5048662;28;20397;-52
2022/08/03 00:33:14;;;;;;;8.20;3.92;;;;;;;;;;5048134;28;20818;-51
2022/08/03 00:35:40;;;;;;;8.80;4.00;;;;;;;;;;5048918;28;20412;-52
2022/08/03 00:38:06;;;;;;;10.27;4.35;;;;;;;;;;5047659;28;20428;-51
2022/08/03 00:40:32;;;;;;;8.43;4.10;;;;;;;;;;5048911;28;20374;-51
2022/08/03 00:42:59;;;;;;;8.23;4.20;;;;;;;;;;5051293;28;20413;-51
2022/08/03 00:45:30;;;;;;;9.00;4.53;;;;;;;;;;5052411;28;20553;-54
2022/08/03 00:47:56;;;;;;;8.00;4.30;;;;;;;;;;5051706;28;20843;-52
2022/08/03 00:50:23;;;;;;;9.18;4.10;;;;;;;;;;5052276;28;20382;-52
2022/08/03 00:52:49;;;;;;;10.52;4.38;;;;;;;;;;5051530;28;20398;-65
2022/08/03 00:55:15;;;;;;;8.45;4.05;;;20.20;99.90;;;;;;5052095;28;20894;-53
2022/08/03 00:57:42;;;;;;;8.80;4.38;;;20.20;1.00;;;;;;5051717;28;20448;-52
2022/08/03 01:00:09;;;;;;;9.80;3.90;;;20.30;1.00;;;;;;5051281;28;20788;-52
2022/08/03 01:02:34;;;;;;;9.07;4.40;;;20.20;1.00;;;;;;5051260;28;20409;-59
2022/08/03 01:05:00;;;;;;;9.57;4.90;;;20.10;1.00;;;;;;5048874;28;20435;-52
2022/08/03 01:07:44;;;;;;;7.80;4.00;;;20.20;1.00;;;;;;5051497;28;20894;-52
2022/08/03 01:10:17;;;;;;;7.88;4.30;;;20.20;1.00;;;;;;5049329;28;20381;-54
2022/08/03 01:13:05;;;;;;;8.93;4.45;;;20.10;1.00;;;;;;5051919;28;20901;-51
2022/08/03 01:16:01;;;;;;;10.23;5.60;;;20.00;1.00;;;;;;5050699;28;20404;-51
2022/08/03 01:18:33;;;;;;;11.55;5.20;;;20.00;1.00;;;;;;5050119;28;20390;-51
2022/08/03 01:21:05;;;;;;;11.73;4.88;;;20.00;1.00;;;;;;5050943;28;20481;-51
2022/08/03 01:23:56;;;;;;;9.73;4.70;;;20.10;1.00;;;;;;5051535;28;20911;-51
2022/08/03 01:26:33;;;;;;;9.70;4.80;;;20.10;1.00;;;;;;5049070;28;20405;-53
2022/08/03 01:29:17;;;;;;;10.30;5.18;;;20.10;1.00;;;;;;5050254;28;20551;-51
2022/08/03 01:31:52;;;;;;;10.30;5.30;;;20.10;1.00;;;;;;5050064;28;20405;-51
2022/08/03 01:34:19;;;;;;;8.27;4.68;;;20.00;1.00;;;;;;5051454;28;20409;-51
2022/08/03 01:36:51;;;;;;;9.70;4.75;;;20.00;1.00;;;;;;5051030;28;20476;-51
2022/08/03 01:39:19;;;;;;;9.02;4.10;;;20.00;1.00;;;;;;5051554;28;20464;-51
2022/08/03 01:41:58;;;;;;;8.40;4.40;;;20.30;1.00;;;;;;5051684;28;20794;-51
2022/08/03 01:44:26;;;;;;;9.65;4.72;;;20.20;1.00;;;;;;5051146;28;20396;-51
2022/08/03 01:46:53;;;;;;;10.77;4.80;;;20.10;1.00;;;;;;5051097;28;20397;-61
2022/08/03 01:49:18;;;;;;;10.15;5.05;;;20.90;1.00;;;;;;5050071;28;20420;-54
2022/08/03 01:51:47;;;;;;;10.47;5.10;;;19.90;1.00;;;;;;5050985;28;20759;-53
2022/08/03 01:54:13;;;;;;;11.63;4.78;;;19.90;1.00;;;;;;5050127;28;20907;-51
2022/08/03 01:56:41;;;;;;;11.32;5.00;;;19.80;1.00;;;;;;5050532;28;20484;-51
2022/08/03 01:59:10;;;;;;;9.98;5.50;;;19.70;99.90;;;;;;5049536;28;20866;-51
2022/08/03 02:01:37;;;;;;;11.45;4.88;;;19.70;99.90;;;;;;5051037;28;20924;-51
2022/08/03 02:04:05;;;;;;;11.00;5.30;;;19.60;99.90;;;;;;5049954;28;20831;-51
2022/08/03 02:06:33;;;;;;;11.70;5.70;;;19.40;1.00;;;;;;5051306;28;20393;-52
2022/08/03 02:09:00;;;;;;;10.00;5.22;;;19.40;99.90;;;;;;5049594;28;20404;-51
2022/08/03 02:11:28;;;;;;;9.75;5.30;;;19.50;99.90;;;;;;5050505;28;20746;-51
2022/08/03 02:13:55;;;;;;;11.48;5.18;;;19.40;99.90;;;;;;5049705;28;20742;-53
2022/08/03 02:16:23;;;;;;;11.65;5.22;;;19.30;1.00;;;;;;5050574;28;20384;-51
2022/08/03 02:18:49;;;;;;;9.05;4.90;;;19.30;29.40;;;;;;5050184;28;20461;-51
2022/08/03 02:21:15;;;;;;;10.27;5.60;;;19.20;1.00;;;;;;5049853;28;20475;-55
2022/08/03 02:23:41;;;;;;;9.63;4.78;;;19.20;99.90;;;;;;5050270;28;20379;-51
2022/08/03 02:26:13;;;;;;;9.70;5.00;;;19.10;1.00;;;;;;5049215;28;21265;-51
2022/08/03 02:28:42;;;;;;;9.82;5.20;;;19.10;99.90;;;;;;5049395;28;20938;-53
2022/08/03 02:31:22;;;;;;;10.48;5.50;;;19.10;1.00;;;;;;5049987;28;20386;-53
2022/08/03 02:34:01;;;;;;;12.80;5.78;;;19.20;99.90;;;;;;5048631;28;20412;-51
2022/08/03 02:36:29;;;;;;;10.55;5.88;;;19.20;1.00;;;;;;5050798;28;20713;-51
2022/08/03 02:38:58;;;;;;;10.57;5.40;;;19.20;99.90;;;;;;5049433;28;20385;-61
2022/08/03 02:41:30;;;;;;;11.13;5.40;;;19.20;99.90;;;;;;5049989;28;20484;-51
2022/08/03 02:43:57;;;;;;;11.43;5.22;;;19.30;99.90;;;;;;5049807;28;20459;-51
2022/08/03 02:46:29;;;;;;;12.77;6.22;;;19.30;1.00;;;;;;5050217;28;20746;-53
2022/08/03 02:48:56;;;;;;;9.85;5.75;;;19.30;1.00;;;;;;5049552;28;20390;-53
2022/08/03 02:51:23;;;;;;;11.38;5.38;;;19.30;1.00;;;;;;5047555;28;20405;-51
2022/08/03 02:53:50;;;;;;;9.95;5.32;;;19.20;84.20;;;;;;5050104;28;20404;-51
2022/08/03 02:56:17;;;;;;;13.65;6.55;;;19.10;1.00;;;;;;5049452;28;20435;-52
2022/08/03 02:58:48;;;;;;;10.30;5.97;;;19.10;1.00;;;;;;5050120;28;20401;-56
2022/08/03 03:01:14;;;;;;;9.87;5.40;;;19.00;99.90;;;;;;5048982;28;20451;-51
2022/08/03 03:03:40;;;;;;;11.23;5.57;;;19.10;99.90;;;;;;5031354;28;20426;-51
2022/08/03 03:06:07;;;;;;;11.60;5.60;;;19.00;1.00;;;;;;5048748;28;20394;-51
2022/08/03 03:08:33;;;;;;;10.52;6.10;;;19.00;1.00;;;;;;5049719;28;20393;-51
2022/08/03 03:11:00;;;;;;;11.67;5.60;;;19.00;99.90;;;;;;5048914;28;20377;-52
2022/08/03 03:13:30;;;;;;;10.30;5.97;;;19.10;99.90;;;;;;5049094;28;20416;-53
2022/08/03 03:16:00;;;;;;;11.20;6.00;;;19.00;99.90;;;;;;5049136;28;20422;-54
2022/08/03 03:18:28;;;;;;;11.35;5.88;;;19.10;99.90;;;;;;5049308;28;20424;-52
2022/08/03 03:20:54;;;;;;;10.32;5.55;;;19.10;99.90;;;;;;5049211;28;20404;-57
2022/08/03 03:23:22;;;;;;;11.45;6.53;;;19.00;1.00;;;;;;5049184;28;20464;-54
2022/08/03 03:25:48;;;;;;;12.30;7.00;;;19.00;99.90;;;;;;5049543;28;20941;-51
2022/08/03 03:28:14;;;;;;;12.57;6.95;;;19.00;99.90;;;;;;5048050;28;21046;-51
2022/08/03 03:30:41;;;;;;;13.13;7.00;;;18.90;99.90;;;;;;5049067;28;20376;-51
2022/08/03 03:33:06;;;;;;;13.05;7.32;;;18.80;99.90;;;;;;5048223;28;20416;-53
2022/08/03 03:35:32;;;;;;;15.50;7.30;;;18.90;99.90;;;;;;5049168;28;20385;-53
2022/08/03 03:37:58;;;;;;;13.50;7.68;;;19.00;99.90;;;;;;5048796;28;20529;-51
2022/08/03 03:40:25;;;;;;;13.33;7.13;;;19.00;99.90;;;;;;5049076;28;20447;-51
2022/08/03 03:42:51;;;;;;;12.70;6.90;;;19.40;99.90;;;;;;5048820;28;20393;-51
2022/08/03 03:45:18;;;;;;;11.23;7.05;;;19.10;99.90;;;;;;5048878;28;20457;-52
2022/08/03 03:47:43;;;;;;;11.68;6.63;;;19.10;99.90;;;;;;5049621;28;20389;-51
2022/08/03 03:50:09;;;;;;;12.82;7.00;;;19.10;99.90;;;;;;5048213;28;20469;-57
2022/08/03 03:52:36;;;;;;;12.40;6.43;;;19.00;99.90;;;;;;5049192;28;20413;-52
2022/08/03 03:55:02;;;;;;;12.25;6.85;;;19.00;99.90;;;;;;5048248;28;20402;-51
2022/08/03 03:57:28;;;;;;;10.63;6.70;;;18.90;1.00;;;;;;5049174;28;20398;-52
2022/08/03 03:59:54;;;;;;;11.30;6.70;;;18.80;1.00;;;;;;5048568;28;20431;-52
2022/08/03 04:02:19;;;;;;;12.00;6.70;;;18.90;1.00;;;;;;5048784;28;20408;-51
2022/08/03 04:10:58;;;;;;;12.07;6.73;;;18.80;1.00;;;;;;5049154;28;20385;-51
2022/08/03 04:13:32;;;;;;;11.90;6.60;;;18.80;1.00;;;;;;5046515;28;20499;-51
2022/08/03 04:15:59;;;;;;;12.07;6.82;;;18.70;1.00;;;;;;5048793;28;20385;-58
2022/08/03 04:18:28;;;;;;;11.30;6.60;;;18.70;1.00;;;;;;5052773;28;20388;-51
2022/08/03 04:20:55;;;;;;;12.00;6.57;;;18.70;1.00;;;;;;5052636;28;20408;-58
2022/08/03 04:23:24;;;;;;;11.77;6.68;;;18.80;1.00;;;;;;5051916;28;20425;-52
2022/08/03 04:25:52;;;;;;;12.65;7.00;;;18.90;1.00;;;;;;5052251;28;20415;-53
2022/08/03 04:28:20;;;;;;;12.27;6.65;;;18.80;1.00;;;;;;5052387;28;20451;-51
2022/08/03 04:30:49;;;;;;;12.03;6.90;;;18.90;1.00;;;;;;5052430;28;20397;-51
2022/08/03 04:33:17;;;;;;;11.02;6.50;;;18.80;1.00;;;;;;5051929;28;20913;-50
2022/08/03 04:35:46;;;;;;;12.88;6.70;;;18.90;1.00;;;;;;5052751;28;20707;-51
2022/08/03 04:38:15;;;;;;;11.40;6.40;;;18.90;1.00;;;;;;5052267;28;20396;-51
2022/08/03 04:40:42;;;;;;;12.10;6.50;;;19.00;1.00;;;;;;5053056;28;20382;-51
2022/08/03 04:43:10;;;;;;;11.45;6.35;;;19.10;1.00;;;;;;5051528;28;20377;-51
2022/08/03 04:45:36;;;;;;;11.00;6.45;;;19.10;1.00;;;;;;5052880;28;20432;-50
2022/08/03 04:48:03;;;;;;;12.67;7.00;;;19.20;1.00;;;;;;5052129;28;20378;-51
2022/08/03 04:50:29;;;;;;;12.75;7.03;;;19.20;1.00;;;;;;5051811;28;20513;-55
2022/08/03 04:52:55;;;;;;;12.45;7.20;;;19.40;1.00;;;;;;5053719;28;20501;-60
2022/08/03 04:55:31;;;;;;;13.02;6.93;;;19.60;99.90;;;;;;5054173;28;20397;-51
2022/08/03 04:57:57;;;;;;;11.30;6.68;;;19.80;99.90;;;;;;5049728;28;20420;-54
2022/08/03 05:00:23;;;;;;;12.20;7.00;;;19.90;99.90;;;;;;5050449;28;20401;-52
2022/08/03 05:02:49;;;;;;;13.60;7.47;;;20.20;99.90;;;;;;5051688;28;20408;-51
2022/08/03 05:05:15;;;;;;;12.00;7.20;;;20.60;1.00;;;;;;5052194;28;20381;-51
2022/08/03 05:07:41;;;;;;;12.05;6.70;;;21.20;99.90;;;;;;5052383;28;20433;-52
2022/08/03 05:10:09;;;;;;;13.93;6.20;;;22.40;99.90;;;;;;5052313;28;20868;-52
2022/08/03 05:12:34;;;;;;;14.00;6.70;;;23.70;1.00;;;;;;5051983;28;20416;-52
2022/08/03 05:15:01;;;;;;;11.73;6.60;;;;;;;;;;5051065;28;20397;-52
2022/08/03 05:17:27;;;;;;;11.15;6.28;;;25.40;1.00;;;;;;5051204;28;20467;-52
2022/08/03 05:19:54;;;;;;;12.20;6.28;;;26.00;1.00;;;;;;5051848;28;20688;-53
2022/08/03 05:22:21;;;;;;;10.13;5.95;;;26.30;1.00;;;;;;5051632;28;20393;-53
2022/08/03 05:24:47;;;;;;;13.32;5.88;;;26.60;99.90;;;;;;5051599;28;20374;-55
2022/08/03 05:27:21;;;;;;;11.52;5.80;;;27.00;99.90;;;;;;5050041;28;20416;-55
2022/08/03 05:29:49;;;;;;;12.25;6.50;;;27.70;99.90;;;;;;5048799;28;20386;-52
2022/08/03 05:32:15;;;;;;;11.93;6.23;;;28.30;99.90;;;;;;5032927;28;20542;-51
2022/08/03 05:34:41;;;;;;;9.32;5.32;;;;;;;;;;5051230;28;20405;-52
2022/08/03 05:37:07;;;;;;;12.95;6.05;;;29.20;99.90;;;;;;5050410;28;20381;-51
2022/08/03 05:39:33;;;;;;;10.77;5.80;;;28.80;99.90;;;;;;5051081;28;20550;-51
2022/08/03 05:41:59;;;;;;;11.55;6.10;;;29.10;99.90;;;;;;5050809;28;20404;-55
2022/08/03 05:44:24;;;;;;;10.82;5.80;;;29.50;99.90;;;;;;5052074;28;20377;-55
2022/08/03 05:46:51;;;;;;;11.77;6.10;;;30.40;99.90;;;;;;5052114;28;20382;-52
2022/08/03 05:49:17;;;;;;;10.73;5.45;;;30.90;99.90;;;;;;5050812;28;20491;-52
2022/08/03 05:51:42;;;;;;;9.68;5.68;;;30.70;99.90;;;;;;5051452;28;20390;-52
2022/08/03 05:54:08;;;;;;;9.90;6.07;;;30.40;99.90;;;;;;5051215;28;20384;-52
2022/08/03 05:56:33;;;;;;;11.32;6.30;;;30.30;99.90;;;;;;5051465;28;20381;-52
2022/08/03 05:58:59;;;;;;;11.17;5.90;;;30.90;99.90;;;;;;5050779;28;20394;-52
2022/08/03 06:01:25;;;;;;;12.00;6.60;;;31.60;99.90;;;;;;5051787;28;20843;-52
2022/08/03 06:03:51;;;;;;;11.35;6.00;;;32.10;99.90;;;;;;5048557;28;20409;-54
2022/08/03 06:06:17;;;;;;;10.68;6.45;;;32.70;99.90;;;;;;5047114;28;20389;-53
2022/08/03 06:08:44;;;;;;;11.80;6.40;;;33.40;99.90;;;;;;5051888;28;20711;-52
2022/08/03 06:11:11;;;;;;;11.80;7.10;;;33.40;99.90;;;;;;5050442;28;20473;-53
2022/08/03 06:13:37;;;;;;;11.05;7.22;;;33.20;99.90;;;;;;5050913;28;20500;-54
2022/08/03 06:16:03;;;;;;;9.57;6.53;;;33.40;99.90;;;;;;5050646;28;20417;-52
2022/08/03 06:18:29;;;;;;;11.90;8.77;;;33.70;99.90;;;;;;5033558;28;20393;-53
2022/08/03 06:20:55;;;;;;;10.80;8.77;;;35.00;99.90;;;;;;5050423;28;20389;-61
2022/08/03 06:23:20;;;;;;;11.60;8.65;;;34.90;99.90;;;;;;5051009;28;20924;-53
2022/08/03 06:25:46;;;;;;;13.47;7.10;;;35.20;99.90;;;;;;5051362;28;20390;-53
2022/08/03 06:28:13;;;;;;;11.10;7.77;;;35.70;99.90;;;;;;5050362;28;20633;-52
2022/08/03 06:30:39;;;;;;;11.00;7.32;;;35.90;99.90;;;;;;5051173;28;20440;-52
2022/08/03 06:33:05;;;;;;;9.53;7.20;;;36.40;99.90;;;;;;5050373;28;20397;-53
2022/08/03 06:35:32;;;;;;;9.25;7.50;;;36.40;99.90;;;;;;5049839;28;20421;-53
2022/08/03 06:37:58;;;;;;;12.52;5.00;;;36.90;99.90;;;;;;5049899;28;20465;-61
2022/08/03 06:40:28;;;;;;;11.73;5.20;;;37.50;99.90;;;;;;5049516;28;20855;-54
2022/08/03 06:42:55;;;;;;;10.73;6.53;;;37.70;99.90;;;;;;5051089;28;20389;-53
2022/08/03 06:45:21;;;;;;;12.02;6.13;;;37.30;99.90;;;;;;5050134;28;20409;-53
2022/08/03 06:47:46;;;;;;;9.45;7.85;;;37.20;99.90;;;;;;5050328;28;20907;-52
2022/08/03 06:50:12;;;;;;;9.30;5.80;;;37.70;99.90;;;;;;5050078;28;20369;-53
2022/08/03 06:52:38;;;;;;;9.87;5.77;;;38.10;99.90;;;;;;5050745;28;20413;-53
2022/08/03 06:55:04;;;;;;;11.98;7.65;;;37.80;99.90;;;;;;5049606;28;20417;-52
2022/08/03 06:57:30;;;;;;;10.20;4.80;;;38.00;99.90;;;;;;5049523;28;20439;-55
2022/08/03 07:00:00;;;;;;;8.80;4.80;;;38.80;99.90;;;;;;5050116;28;20437;-61
2022/08/03 07:02:29;;;;;;;8.40;4.57;;;39.50;99.90;;;;;;5049596;28;20882;-53
2022/08/03 07:04:55;;;;;;;8.70;4.80;;;39.50;99.90;;;;;;5050169;28;20893;-53
2022/08/03 07:07:20;;;;;;;9.30;4.50;;;38.80;99.90;;;;;;5049845;28;20373;-52
2022/08/03 07:09:47;;;;;;;8.98;4.80;;;39.00;99.90;;;;;;5050172;28;20449;-53
2022/08/03 07:12:12;;;;;;;9.30;4.35;;;39.20;99.90;;;;;;5030881;28;20961;-52
2022/08/03 07:14:38;;;;;;;8.15;4.85;;;39.00;99.90;;;;;;5049856;28;20511;-54
2022/08/03 07:17:04;;;;;;;11.50;5.33;;;39.40;99.90;;;;;;5049458;28;20412;-53
2022/08/03 07:19:29;;;;;;;8.90;4.68;;;39.40;99.90;;;;;;5032009;28;20763;-53
2022/08/03 07:21:55;;;;;;;11.63;4.67;;;38.90;99.90;;;;;;5049463;28;20390;-53
2022/08/03 07:24:20;;;;;;;9.17;4.40;;;38.10;99.90;;;;;;5049417;28;20381;-52
2022/08/03 07:26:46;;;;;;;8.95;4.22;;;38.50;99.90;;;;;;5049327;28;20385;-55
2022/08/03 07:29:12;;;;;;;8.43;4.00;;;38.70;99.90;;;;;;5049141;28;20488;-53
2022/08/03 07:31:37;;;;;;;8.40;4.57;;;39.30;99.90;;;;;;5049399;28;20393;-53
2022/08/03 07:34:03;;;;;;;10.47;4.40;;;38.90;99.90;;;;;;5048852;28;20401;-53
2022/08/03 07:36:31;;;;;;;8.60;4.68;;;38.80;99.90;;;;;;5049477;28;20708;-52
2022/08/03 07:38:57;;;;;;;8.15;4.38;;;38.90;99.90;;;;;;5049423;28;20961;-61
2022/08/03 07:41:23;;;;;;;9.70;4.87;;;39.80;99.90;;;;;;5048982;28;20365;-53
2022/08/03 07:43:48;;;;;;;9.30;4.60;;;40.60;99.90;;;;;;5049695;28;20420;-53
2022/08/03 07:46:14;;;;;;;9.60;4.13;;;41.40;99.90;;;;;;5048798;28;20417;-53
2022/08/03 07:48:40;;;;;;;10.37;7.77;;;40.20;99.90;;;;;;5049364;28;20906;-53
2022/08/03 07:51:05;;;;;;;8.70;6.67;;;39.30;99.90;;;;;;5051347;28;20381;-53
2022/08/03 07:53:31;;;;;;;9.70;7.60;;;39.50;99.90;;;;;;5053027;28;20563;-53
2022/08/03 07:55:57;;;;;;;9.47;6.90;;;39.80;99.90;;;;;;5053253;28;20425;-61
2022/08/03 07:58:23;;;;;;;8.57;5.70;;;40.10;99.90;;;;;;5053874;28;20724;-53
2022/08/03 08:00:52;;;;;;;10.43;4.80;;;40.40;99.90;;;;;;5035544;28;20929;-53
2022/08/03 08:03:18;;;;;;;7.82;3.65;;;41.10;99.90;;;;;;5052937;28;20435;-53
2022/08/03 08:05:44;;;;;;;7.07;3.50;;;41.40;99.90;;;;;;5035869;28;20873;-53
2022/08/03 08:08:10;;;;;;;9.13;3.73;;;41.20;99.90;;;;;;5052749;28;20377;-53
2022/08/03 08:10:36;;;;;;;6.80;3.30;;;41.60;99.90;;;;;;5053331;28;20836;-53
2022/08/03 08:13:03;;;;;;;8.27;4.03;;;41.60;99.90;;;;;;5053107;28;20422;-53
2022/08/03 08:15:28;;;;;;;7.72;4.43;;;42.00;99.90;;;;;;5053766;28;20408;-53
2022/08/03 08:17:56;;;;;;;7.10;5.78;;;42.30;99.90;;;;;;5053380;28;20822;-53
2022/08/03 08:20:27;;;;;;;7.38;3.30;;;42.50;99.90;;;;;;5053113;28;20431;-53
2022/08/03 08:22:58;;;;;;;8.43;2.88;;;43.40;99.90;;;;;;5052769;28;20382;-54
2022/08/03 08:25:25;;;;;;;9.32;3.50;;;43.40;99.90;;;;;;5052871;28;20389;-53
2022/08/03 08:27:51;;;;;;;8.30;3.03;;;42.80;99.90;;;;;;5053207;28;20405;-54
2022/08/03 08:30:19;;;;;;;7.13;5.43;;;42.60;99.90;;;;;;5052682;28;20442;-53
2022/08/03 08:32:45;;;;;;;7.97;5.32;;;42.00;99.90;;;;;;5052565;28;20483;-58
2022/08/03 08:35:11;;;;;;;8.00;6.20;;;41.90;99.90;;;;;;5052294;28;20373;-54
2022/08/03 08:37:39;;;;;;;8.75;7.85;;;42.50;99.90;;;;;;5052876;28;20370;-54
2022/08/03 08:40:05;;;;;;;7.60;5.90;;;42.70;99.90;;;;;;5052263;28;20385;-54
2022/08/03 08:42:31;;;;;;;7.32;6.13;;;42.60;99.90;;;;;;5052916;28;20405;-59
2022/08/03 08:44:59;;;;;;;6.60;5.00;;;42.50;99.90;;;;;;5052124;28;20413;-58
2022/08/03 08:47:28;;;;;;;6.60;5.20;;;41.60;99.90;;;;;;5052545;28;20412;-53
2022/08/03 08:49:54;;;;;;;9.50;5.20;;;41.80;99.90;;;;;;5053233;28;20449;-54
2022/08/03 08:52:28;;;;;;;7.35;5.10;;;41.90;99.90;;;;;;5051934;28;20394;-55
2022/08/03 08:55:05;;;;;;;6.43;4.90;;;42.50;99.90;;;;;;5052474;28;20382;-54
2022/08/03 08:57:39;;;;;;;5.93;4.03;;;42.80;99.90;;;;;;5052355;28;20443;-53
2022/08/03 09:00:08;;;;;;;6.25;4.55;;;42.60;99.90;;;;;;5051959;28;20381;-53
2022/08/03 09:02:34;;;;;;;8.38;5.93;;;42.60;99.90;;;;;;5051708;28;20436;-56
2022/08/03 09:05:00;;;;;;;8.60;4.88;;;43.30;99.90;;;;;;5051842;28;20392;-62
2022/08/03 09:07:27;;;;;;;7.57;5.43;;;43.70;99.90;;;;;;5052111;28;20404;-54
2022/08/03 09:09:53;;;;;;;5.70;2.10;;;44.50;99.90;;;;;;5052381;28;20373;-54
2022/08/03 09:12:19;;;;;;;5.30;2.00;;;43.50;99.90;;;;;;5051788;28;20629;-54
2022/08/03 09:14:45;;;;;;;7.43;2.30;;;43.70;99.90;;;;;;5052091;28;20863;-54
2022/08/03 09:17:10;;;;;;;8.15;5.03;;;42.30;99.90;;;;;;5051623;28;20436;-53
2022/08/03 09:19:36;;;;;;;7.70;6.50;;;42.00;99.90;;;;;;5052174;28;20492;-54
2022/08/03 09:22:08;;;;;;;6.70;5.60;;;43.00;99.90;;;;;;5033619;28;20386;-54
2022/08/03 09:24:34;;;;;;;6.95;4.78;;;43.80;99.90;;;;;;5051891;28;20396;-54
2022/08/03 09:27:00;;;;;;;6.70;4.80;;;43.10;99.90;;;;;;5050947;28;20403;-56
2022/08/03 09:29:30;;;;;;;7.40;5.60;;;42.80;99.90;;;;;;5052255;28;20886;-54
2022/08/03 09:32:01;;;;;;;6.72;5.18;;;43.60;99.90;;;;;;5052014;28;21013;-53
2022/08/03 09:34:27;;;;;;;7.47;5.80;;;44.10;99.90;;;;;;5052037;28;20389;-53
2022/08/03 09:36:54;;;;;;;8.00;4.90;;;43.60;99.90;;;;;;5051746;28;20427;-54
2022/08/03 09:39:22;;;;;;;8.00;5.13;;;43.10;99.90;;;;;;5050774;28;20370;-54
2022/08/03 09:42:10;;;;;;;6.63;4.70;;;42.80;99.90;;;;;;5051676;28;20435;-54
2022/08/03 09:44:39;;;;;;;6.50;4.60;;;42.90;99.90;;;;;;5051757;28;20398;-54
2022/08/03 09:47:05;;;;;;;6.70;4.60;;;42.50;99.90;;;;;;5050673;28;20415;-54
2022/08/03 09:49:31;;;;;;;7.60;6.00;;;42.90;99.90;;;;;;5051130;28;20455;-54
2022/08/03 09:52:02;;;;;;;6.30;4.90;;;42.50;99.90;;;;;;5051220;28;20404;-54
2022/08/03 09:54:29;;;;;;;6.40;4.60;;;42.50;99.90;;;;;;5051345;28;20912;-54
2022/08/03 09:56:56;;;;;;;7.27;4.10;;;43.00;99.90;;;;;;5051875;28;20394;-54
2022/08/03 09:59:27;;;;;;;6.80;5.07;;;43.80;99.90;;;;;;5050243;28;20408;-56
2022/08/03 10:01:54;;;;;;;6.40;5.10;;;44.50;99.90;;;;;;5051574;28;20369;-54
2022/08/03 10:04:21;;;;;;;7.13;4.50;;;44.10;99.90;;;;;;5050291;28;20547;-54
2022/08/03 10:07:04;;;;;;;6.10;4.70;;;44.40;99.90;;;;;;5051002;28;20385;-54
2022/08/03 10:09:29;;;;;;;7.70;5.28;;;44.40;99.90;;;;;;5051165;28;20378;-55
2022/08/03 10:11:56;;;;;;;7.20;5.10;;;44.40;99.90;;;;;;5050907;28;20369;-54
2022/08/03 10:14:22;;;;;;;6.38;4.50;;;44.50;99.90;;;;;;5049642;28;21127;-54
2022/08/03 10:16:48;;;;;;;6.30;4.70;;;42.40;99.90;;;;;;5051394;28;20374;-54
2022/08/03 10:19:15;;;;;;;7.00;4.90;;;41.30;99.90;;;;;;5050524;28;20409;-54
2022/08/03 10:21:50;;;;;;;6.13;4.65;;;41.70;99.90;;;;;;5050789;28;20388;-54
2022/08/03 10:24:22;;;;;;;6.05;4.40;;;42.70;99.90;;;;;;5049611;28;20845;-54
2022/08/03 10:26:49;;;;;;;6.28;4.53;;;43.40;99.90;;;;;;5049833;28;20401;-55
2022/08/03 10:29:23;;;;;;;6.70;4.95;;;43.40;99.90;;;;;;5050533;28;20388;-55
2022/08/03 10:31:53;;;;;;;7.60;5.30;;;42.90;99.90;;;;;;5050102;28;20385;-54
2022/08/03 10:34:23;;;;;;;7.70;4.90;;;41.20;99.90;;;;;;5049710;28;20412;-54
2022/08/03 10:36:55;;;;;;;6.50;5.30;;;40.90;99.90;;;;;;5050606;28;20381;-54
2022/08/03 10:39:22;;;;;;;7.63;5.72;;;40.80;99.90;;;;;;5049893;28;20416;-53
2022/08/03 10:41:50;;;;;;;9.95;5.60;;;40.30;99.90;;;;;;5050305;28;20385;-54
2022/08/03 10:44:22;;;;;;;7.03;5.68;;;39.50;99.90;;;;;;5049708;28;20882;-54
2022/08/03 10:46:49;;;;;;;7.82;6.85;;;38.70;99.90;;;;;;5050400;28;20378;-53
2022/08/03 10:49:18;;;;;;;7.00;5.90;;;38.10;99.90;;;;;;5049355;28;20381;-54
2022/08/03 10:51:45;;;;;;;7.65;6.75;;;37.90;99.90;;;;;;5050237;28;20386;-53
2022/08/03 10:57:33;;;;;;;8.07;7.28;;;37.50;99.90;;;;;;5050216;28;20416;-53
2022/08/03 10:57:49;;;;;;;6.93;6.07;;;37.20;99.90;;;;;;5048961;28;20912;-53
2022/08/03 11:00:17;;;;;;;7.37;6.50;;;36.90;99.90;;;;;;5049318;28;20830;-54
2022/08/03 11:03:01;;;;;;;7.18;6.15;;;36.90;99.90;;;;;;5049869;28;20912;-53
2022/08/03 11:05:29;;;;;;;7.43;6.50;;;36.60;99.90;;;;;;5049622;28;20791;-53
2022/08/03 11:08:21;;;;;;;7.90;6.77;;;36.50;99.90;;;;;;5050012;28;20366;-55
2022/08/03 11:10:48;;;;;;;7.82;6.90;;;36.10;99.90;;;;;;5049943;28;20476;-55
2022/08/03 11:13:19;;;;;;;8.10;5.83;;;36.00;99.90;;;;;;5048781;28;20809;-53
2022/08/03 11:15:47;;;;;;;7.50;6.10;;;36.00;99.90;;;;;;5050103;28;20850;-53
2022/08/03 11:18:13;;;;;;;7.68;6.72;;;36.00;99.90;;;;;;5049256;28;20428;-54
2022/08/03 11:20:51;;;;;;;8.83;5.77;;;36.20;99.90;;;;;;5050030;28;20850;-53
2022/08/03 11:23:40;;;;;;;7.30;6.30;;;36.50;99.90;;;;;;5048982;28;20500;-57
2022/08/03 11:26:09;;;;;;;7.57;6.05;;;36.90;99.90;;;;;;5048936;28;20420;-54
2022/08/03 11:28:37;;;;;;;7.35;6.55;;;36.90;99.90;;;;;;5049164;28;20755;-53
2022/08/03 11:31:21;;;;;;;6.55;5.82;;;36.60;99.90;;;;;;5048939;28;20465;-53
2022/08/03 11:34:09;;;;;;;7.10;6.40;;;36.60;99.90;;;;;;5049257;28;20413;-53
2022/08/03 11:37:13;;;;;;;7.05;5.65;;;36.60;99.90;;;;;;5049597;28;21165;-56
2022/08/03 11:39:39;;;;;;;6.70;5.88;;;36.70;99.90;;;;;;5050139;28;20511;-54
2022/08/03 11:42:28;;;;;;;7.70;6.90;;;36.60;99.90;;;;;;5048258;28;20468;-53
2022/08/03 11:44:55;;;;;;;9.13;5.78;;;36.80;99.90;;;;;;5043718;28;20393;-53
2022/08/03 11:47:23;;;;;;;6.93;5.72;;;36.60;99.90;;;;;;5049128;28;20393;-53
2022/08/03 11:49:50;;;;;;;7.65;6.85;;;36.20;99.90;;;;;;5049433;28;20472;-53
2022/08/03 11:52:17;;;;;;;7.55;6.60;;;36.00;99.90;;;;;;5048649;28;20405;-53
2022/08/03 11:54:42;;;;;;;7.05;6.18;;;36.00;99.90;;;;;;5049918;28;20501;-53
2022/08/03 11:57:08;;;;;;;7.32;6.20;;;36.10;99.90;;;;;;5049368;28;20477;-53
2022/08/03 11:59:36;;;;;;;7.90;6.50;;;36.60;99.90;;;;;;5049291;28;20386;-53
2022/08/03 12:02:15;;;;;;;8.90;6.72;;;36.70;99.90;;;;;;5048999;28;20456;-53
2022/08/03 12:05:01;;;;;;;8.20;6.95;;;36.60;99.90;;;;;;5049529;28;20419;-53
2022/08/03 12:07:29;;;;;;;7.07;5.70;;;36.60;99.90;;;;;;5049966;28;20376;-53
2022/08/03 12:10:08;;;;;;;6.90;5.70;;;36.60;99.90;;;;;;5049356;28;20373;-56
2022/08/03 12:12:34;;;;;;;6.90;5.80;;;36.30;99.90;;;;;;5048721;28;20437;-53
2022/08/03 12:15:00;;;;;;;8.85;6.95;;;35.90;99.90;;;;;;5048995;28;20521;-61
2022/08/03 12:17:39;;;;;;;7.55;5.93;;;35.70;99.90;;;;;;5049269;28;20476;-54
2022/08/03 12:20:07;;;;;;;7.03;6.13;;;35.80;99.90;;;;;;5049312;28;20385;-53
2022/08/03 12:22:34;;;;;;;7.60;5.82;;;35.50;99.90;;;;;;5049520;28;20382;-55
2022/08/03 12:24:59;;;;;;;7.22;6.45;;;35.30;99.90;;;;;;5048852;28;20406;-61
2022/08/03 12:27:28;;;;;;;7.60;5.70;;;35.70;99.90;;;;;;5048465;28;20409;-53
2022/08/03 12:29:55;;;;;;;7.60;6.80;;;35.90;99.90;;;;;;5048902;28;20936;-53
2022/08/03 12:32:21;;;;;;;8.15;6.75;;;35.90;99.90;;;;;;5047039;28;20469;-53
2022/08/03 12:34:48;;;;;;;7.10;6.10;;;36.00;99.90;;;;;;5048064;28;20882;-52
2022/08/03 12:37:18;;;;;;;7.35;6.55;;;36.00;99.90;;;;;;5047476;28;20416;-57
2022/08/03 12:39:49;;;;;;;7.90;6.50;;;35.90;99.90;;;;;;5051096;28;20524;-53
2022/08/03 12:42:15;;;;;;;8.02;5.40;;;36.10;99.90;;;;;;5049400;28;20393;-53
2022/08/03 12:44:41;;;;;;;7.82;6.20;;;36.30;99.90;;;;;;5052573;28;20400;-53
2022/08/03 12:47:09;;;;;;;7.10;5.73;;;36.20;99.90;;;;;;5051529;28;20381;-53
2022/08/03 12:49:48;;;;;;;7.13;5.68;;;36.30;99.90;;;;;;5052515;28;20489;-52
2022/08/03 12:52:15;;;;;;;6.80;5.45;;;36.60;99.90;;;;;;5051613;28;20735;-53
2022/08/03 12:54:42;;;;;;;6.70;5.70;;;36.80;99.90;;;;;;5052326;28;20416;-53
2022/08/03 12:57:12;;;;;;;7.13;6.20;;;36.70;99.90;;;;;;5050927;28;20492;-53
2022/08/03 12:59:44;;;;;;;6.55;5.53;;;36.80;99.90;;;;;;5050950;28;20911;-53
2022/08/03 13:02:15;;;;;;;7.30;6.10;;;36.60;99.90;;;;;;5049775;28;20896;-54
2022/08/03 13:04:42;;;;;;;7.60;5.60;;;36.60;99.90;;;;;;5051513;28;20400;-53
2022/08/03 13:07:09;;;;;;;7.30;5.30;;;36.60;99.90;;;;;;5050897;28;20397;-53